sensor_id;sensor_type;location;lat;lon;timestamp;pressure;altitude;pressure_sealevel;temperature;humidity
52927;BME280;40783;49.710;8.842;2023-05-03T00:01:49;100078.84;;;7.54;100.00
52927;BME280;40783;49.710;8.842;2023-05-03T00:04:15;100074.81;;;7.48;100.00
52927;BME280;40783;49.710;8.842;2023-05-03T00:06:43;100077.56;;;7.35;100.00
52927;BME280;40783;49.710;8.842;2023-05-03T00:09:08;100083.69;;;7.24;100.00
52927;BME280;40783;49.710;8.842;2023-05-03T00:11:35;100092.84;;;7.20;100.00
52927;BME280;40783;49.710;8.842;2023-05-03T00:14:00;100090.94;;;7.22;100.00
52927;BME280;40783;49.710;8.842;2023-05-03T00:16:25;100082.72;;;7.25;100.00
52927;BME280;40783;49.710;8.842;2023-05-03T00:18:53;100081.75;;;7.26;100.00
52927;BME280;40783;49.710;8.842;2023-05-03T00:21:18;100086.34;;;7.24;100.00
52927;BME280;40783;49.710;8.842;2023-05-03T00:23:44;100086.28;;;7.13;100.00
52927;BME280;40783;49.710;8.842;2023-05-03T00:26:12;100078.44;;;7.11;100.00
52927;BME280;40783;49.710;8.842;2023-05-03T00:28:37;100081.19;;;7.10;100.00
52927;BME280;40783;49.710;8.842;2023-05-03T00:31:07;100075.88;;;7.10;100.00
52927;BME280;40783;49.710;8.842;2023-05-03T00:33:35;100069.06;;;7.06;100.00
52927;BME280;40783;49.710;8.842;2023-05-03T00:36:13;100066.31;;;7.07;100.00
52927;BME280;40783;49.710;8.842;2023-05-03T00:38:39;100074.97;;;7.22;100.00
52927;BME280;40783;49.710;8.842;2023-05-03T00:41:06;100072.47;;;7.08;100.00
52927;BME280;40783;49.710;8.842;2023-05-03T00:43:32;100071.56;;;6.96;100.00
52927;BME280;40783;49.710;8.842;2023-05-03T00:46:02;100065.50;;;6.94;100.00
52927;BME280;40783;49.710;8.842;2023-05-03T00:48:29;100069.19;;;6.80;100.00
52927;BME280;40783;49.710;8.842;2023-05-03T00:50:59;100064.81;;;6.79;100.00
52927;BME280;40783;49.710;8.842;2023-05-03T00:53:28;100059.44;;;6.67;100.00
52927;BME280;40783;49.710;8.842;2023-05-03T00:55:59;100053.91;;;6.71;100.00
52927;BME280;40783;49.710;8.842;2023-05-03T00:58:25;100061.56;;;6.62;100.00
52927;BME280;40783;49.710;8.842;2023-05-03T01:00:51;100059.50;;;6.79;100.00
52927;BME280;40783;49.710;8.842;2023-05-03T01:03:19;100056.25;;;6.62;100.00
52927;BME280;40783;49.710;8.842;2023-05-03T01:11:01;100051.09;;;6.85;100.00
52927;BME280;40783;49.710;8.842;2023-05-03T01:14:00;100045.25;;;6.80;100.00
52927;BME280;40783;49.710;8.842;2023-05-03T01:16:38;100036.72;;;6.88;100.00
52927;BME280;40783;49.710;8.842;2023-05-03T01:22:16;100033.88;;;6.78;100.00
52927;BME280;40783;49.710;8.842;2023-05-03T01:24:50;100027.72;;;6.40;100.00
52927;BME280;40783;49.710;8.842;2023-05-03T01:27:22;100026.84;;;6.39;100.00
52927;BME280;40783;49.710;8.842;2023-05-03T01:29:49;100022.38;;;6.53;100.00
52927;BME280;40783;49.710;8.842;2023-05-03T01:32:22;100031.38;;;6.63;100.00
52927;BME280;40783;49.710;8.842;2023-05-03T01:35:03;100024.47;;;6.61;100.00
52927;BME280;40783;49.710;8.842;2023-05-03T01:37:32;100019.91;;;6.50;100.00
52927;BME280;40783;49.710;8.842;2023-05-03T01:40:01;100022.91;;;6.45;100.00
52927;BME280;40783;49.710;8.842;2023-05-03T01:42:35;100021.84;;;6.48;100.00
52927;BME280;40783;49.710;8.842;2023-05-03T01:45:05;100023.53;;;6.49;100.00
52927;BME280;40783;49.710;8.842;2023-05-03T01:47:35;100025.03;;;6.53;100.00
52927;BME280;40783;49.710;8.842;2023-05-03T01:50:01;100024.78;;;6.56;100.00
52927;BME280;40783;49.710;8.842;2023-05-03T01:52:26;100022.25;;;6.55;100.00
52927;BME280;40783;49.710;8.842;2023-05-03T01:54:56;100017.16;;;6.51;100.00
52927;BME280;40783;49.710;8.842;2023-05-03T01:57:21;100013.34;;;6.43;100.00
52927;BME280;40783;49.710;8.842;2023-05-03T01:59:49;100020.19;;;6.34;100.00
52927;BME280;40783;49.710;8.842;2023-05-03T02:02:17;100019.97;;;6.37;100.00
52927;BME280;40783;49.710;8.842;2023-05-03T02:04:45;100035.03;;;6.36;100.00
52927;BME280;40783;49.710;8.842;2023-05-03T02:07:10;100039.72;;;6.33;100.00
52927;BME280;40783;49.710;8.842;2023-05-03T02:09:36;100033.81;;;6.16;100.00
52927;BME280;40783;49.710;8.842;2023-05-03T02:12:01;100037.88;;;6.09;100.00
52927;BME280;40783;49.710;8.842;2023-05-03T02:14:26;100032.72;;;5.93;100.00
52927;BME280;40783;49.710;8.842;2023-05-03T02:16:54;100031.91;;;6.05;100.00
52927;BME280;40783;49.710;8.842;2023-05-03T02:19:20;100032.78;;;6.06;100.00
52927;BME280;40783;49.710;8.842;2023-05-03T02:21:45;100038.47;;;6.00;100.00
52927;BME280;40783;49.710;8.842;2023-05-03T02:24:10;100027.31;;;5.94;100.00
52927;BME280;40783;49.710;8.842;2023-05-03T02:26:38;100034.41;;;5.94;100.00
52927;BME280;40783;49.710;8.842;2023-05-03T02:29:06;100026.97;;;5.60;100.00
52927;BME280;40783;49.710;8.842;2023-05-03T02:31:31;100035.94;;;5.72;100.00
52927;BME280;40783;49.710;8.842;2023-05-03T02:33:59;100037.63;;;5.73;100.00
52927;BME280;40783;49.710;8.842;2023-05-03T02:36:24;100035.50;;;5.78;100.00
52927;BME280;40783;49.710;8.842;2023-05-03T02:38:50;100039.75;;;5.68;100.00
52927;BME280;40783;49.710;8.842;2023-05-03T02:41:15;100044.91;;;5.57;100.00
52927;BME280;40783;49.710;8.842;2023-05-03T02:43:41;100040.56;;;5.56;100.00
52927;BME280;40783;49.710;8.842;2023-05-03T02:46:06;100040.91;;;5.64;100.00
52927;BME280;40783;49.710;8.842;2023-05-03T02:48:31;100039.53;;;5.71;100.00
52927;BME280;40783;49.710;8.842;2023-05-03T02:50:57;100036.34;;;5.66;100.00
52927;BME280;40783;49.710;8.842;2023-05-03T02:53:22;100045.25;;;5.65;100.00
52927;BME280;40783;49.710;8.842;2023-05-03T02:55:48;100041.53;;;5.14;100.00
52927;BME280;40783;49.710;8.842;2023-05-03T02:58:14;100040.44;;;5.04;100.00
52927;BME280;40783;49.710;8.842;2023-05-03T03:00:41;100037.66;;;5.33;100.00
52927;BME280;40783;49.710;8.842;2023-05-03T03:03:07;100040.88;;;5.51;100.00
52927;BME280;40783;49.710;8.842;2023-05-03T03:05:32;100039.06;;;5.52;100.00
52927;BME280;40783;49.710;8.842;2023-05-03T03:07:57;100039.94;;;5.52;100.00
52927;BME280;40783;49.710;8.842;2023-05-03T03:10:23;100037.38;;;5.50;100.00
52927;BME280;40783;49.710;8.842;2023-05-03T03:12:48;100038.31;;;5.49;100.00
52927;BME280;40783;49.710;8.842;2023-05-03T03:15:16;100037.25;;;5.39;100.00
52927;BME280;40783;49.710;8.842;2023-05-03T03:17:41;100044.44;;;4.97;100.00
52927;BME280;40783;49.710;8.842;2023-05-03T03:20:07;100040.94;;;5.24;100.00
52927;BME280;40783;49.710;8.842;2023-05-03T03:22:36;100036.41;;;5.39;100.00
52927;BME280;40783;49.710;8.842;2023-05-03T03:25:02;100043.69;;;5.35;100.00
52927;BME280;40783;49.710;8.842;2023-05-03T03:27:28;100038.19;;;5.38;100.00
52927;BME280;40783;49.710;8.842;2023-05-03T03:29:54;100042.09;;;5.19;100.00
52927;BME280;40783;49.710;8.842;2023-05-03T03:32:21;100042.75;;;4.96;100.00
52927;BME280;40783;49.710;8.842;2023-05-03T03:34:46;100049.69;;;4.84;100.00
52927;BME280;40783;49.710;8.842;2023-05-03T03:37:12;100045.00;;;5.02;100.00
52927;BME280;40783;49.710;8.842;2023-05-03T03:39:41;100034.06;;;4.52;100.00
52927;BME280;40783;49.710;8.842;2023-05-03T03:42:09;100046.84;;;4.30;100.00
52927;BME280;40783;49.710;8.842;2023-05-03T03:44:37;100043.16;;;4.48;100.00
52927;BME280;40783;49.710;8.842;2023-05-03T03:47:02;100049.56;;;4.58;100.00
52927;BME280;40783;49.710;8.842;2023-05-03T03:49:27;100044.16;;;4.74;100.00
52927;BME280;40783;49.710;8.842;2023-05-03T03:51:55;100053.16;;;4.99;100.00
52927;BME280;40783;49.710;8.842;2023-05-03T03:54:20;100043.34;;;4.86;100.00
52927;BME280;40783;49.710;8.842;2023-05-03T03:56:46;100056.84;;;4.69;100.00
52927;BME280;40783;49.710;8.842;2023-05-03T03:59:11;100056.84;;;4.69;100.00
52927;BME280;40783;49.710;8.842;2023-05-03T04:01:38;100045.28;;;4.70;100.00
52927;BME280;40783;49.710;8.842;2023-05-03T04:04:06;100044.94;;;4.62;100.00
52927;BME280;40783;49.710;8.842;2023-05-03T04:06:31;100044.00;;;4.48;100.00
52927;BME280;40783;49.710;8.842;2023-05-03T04:08:57;100051.56;;;4.40;100.00
52927;BME280;40783;49.710;8.842;2023-05-03T04:11:23;100038.25;;;4.41;100.00
52927;BME280;40783;49.710;8.842;2023-05-03T04:13:48;100046.63;;;4.63;100.00
52927;BME280;40783;49.710;8.842;2023-05-03T04:16:14;100043.53;;;4.83;100.00
52927;BME280;40783;49.710;8.842;2023-05-03T04:18:39;100048.25;;;4.93;100.00
52927;BME280;40783;49.710;8.842;2023-05-03T04:21:08;100043.81;;;4.93;100.00
52927;BME280;40783;49.710;8.842;2023-05-03T04:23:33;100058.84;;;4.93;100.00
52927;BME280;40783;49.710;8.842;2023-05-03T04:25:58;100055.63;;;4.87;100.00
52927;BME280;40783;49.710;8.842;2023-05-03T04:28:24;100052.22;;;4.85;100.00
52927;BME280;40783;49.710;8.842;2023-05-03T04:30:52;100058.00;;;4.92;100.00
52927;BME280;40783;49.710;8.842;2023-05-03T04:33:20;100045.50;;;4.94;100.00
52927;BME280;40783;49.710;8.842;2023-05-03T04:35:49;100057.81;;;4.95;100.00
52927;BME280;40783;49.710;8.842;2023-05-03T04:38:15;100050.63;;;4.97;100.00
52927;BME280;40783;49.710;8.842;2023-05-03T04:40:45;100063.47;;;4.62;100.00
52927;BME280;40783;49.710;8.842;2023-05-03T04:43:11;100063.66;;;4.73;100.00
52927;BME280;40783;49.710;8.842;2023-05-03T04:45:37;100060.19;;;4.85;100.00
52927;BME280;40783;49.710;8.842;2023-05-03T04:48:02;100060.16;;;5.00;100.00
52927;BME280;40783;49.710;8.842;2023-05-03T04:50:29;100060.75;;;4.90;100.00
52927;BME280;40783;49.710;8.842;2023-05-03T04:52:57;100069.41;;;5.07;100.00
52927;BME280;40783;49.710;8.842;2023-05-03T04:55:22;100064.06;;;5.22;100.00
52927;BME280;40783;49.710;8.842;2023-05-03T04:57:52;100061.31;;;5.36;100.00
52927;BME280;40783;49.710;8.842;2023-05-03T05:00:22;100070.44;;;5.32;100.00
52927;BME280;40783;49.710;8.842;2023-05-03T05:02:49;100070.03;;;5.38;100.00
52927;BME280;40783;49.710;8.842;2023-05-03T05:05:15;100066.69;;;5.49;100.00
52927;BME280;40783;49.710;8.842;2023-05-03T05:07:40;100077.66;;;5.30;100.00
52927;BME280;40783;49.710;8.842;2023-05-03T05:10:06;100076.69;;;5.31;100.00
52927;BME280;40783;49.710;8.842;2023-05-03T05:12:36;100076.28;;;5.77;100.00
52927;BME280;40783;49.710;8.842;2023-05-03T05:15:02;100072.28;;;6.11;100.00
52927;BME280;40783;49.710;8.842;2023-05-03T05:17:28;100077.06;;;6.05;100.00
52927;BME280;40783;49.710;8.842;2023-05-03T05:19:54;100077.03;;;5.92;100.00
52927;BME280;40783;49.710;8.842;2023-05-03T05:22:22;100071.59;;;6.46;100.00
52927;BME280;40783;49.710;8.842;2023-05-03T05:24:47;100078.34;;;6.63;100.00
52927;BME280;40783;49.710;8.842;2023-05-03T05:27:12;100080.94;;;6.51;100.00
52927;BME280;40783;49.710;8.842;2023-05-03T05:29:37;100082.03;;;6.36;100.00
52927;BME280;40783;49.710;8.842;2023-05-03T05:32:03;100084.81;;;6.34;100.00
52927;BME280;40783;49.710;8.842;2023-05-03T05:34:34;100078.81;;;6.57;100.00
52927;BME280;40783;49.710;8.842;2023-05-03T05:36:59;100083.44;;;6.79;100.00
52927;BME280;40783;49.710;8.842;2023-05-03T05:39:24;100077.03;;;6.81;100.00
52927;BME280;40783;49.710;8.842;2023-05-03T05:41:50;100087.31;;;7.23;100.00
52927;BME280;40783;49.710;8.842;2023-05-03T05:44:15;100083.53;;;7.50;100.00
52927;BME280;40783;49.710;8.842;2023-05-03T05:46:40;100086.25;;;7.62;100.00
52927;BME280;40783;49.710;8.842;2023-05-03T05:49:05;100082.22;;;7.92;100.00
52927;BME280;40783;49.710;8.842;2023-05-03T05:51:31;100090.97;;;8.28;100.00
52927;BME280;40783;49.710;8.842;2023-05-03T05:53:56;100092.19;;;8.58;99.68
52927;BME280;40783;49.710;8.842;2023-05-03T05:56:22;100081.44;;;9.15;95.46
52927;BME280;40783;49.710;8.842;2023-05-03T05:58:52;100091.47;;;8.79;97.14
52927;BME280;40783;49.710;8.842;2023-05-03T06:01:18;100073.81;;;9.43;92.98
52927;BME280;40783;49.710;8.842;2023-05-03T06:03:43;100074.78;;;9.42;92.60
52927;BME280;40783;49.710;8.842;2023-05-03T06:06:08;100082.81;;;9.84;90.60
52927;BME280;40783;49.710;8.842;2023-05-03T06:08:34;100077.66;;;10.14;88.93
52927;BME280;40783;49.710;8.842;2023-05-03T06:11:02;100073.63;;;9.77;90.31
52927;BME280;40783;49.710;8.842;2023-05-03T06:13:28;100071.63;;;10.43;87.78
52927;BME280;40783;49.710;8.842;2023-05-03T06:15:56;100062.47;;;10.96;85.89
52927;BME280;40783;49.710;8.842;2023-05-03T06:18:21;100063.06;;;11.49;80.62
52927;BME280;40783;49.710;8.842;2023-05-03T06:20:49;100064.47;;;11.33;83.72
52927;BME280;40783;49.710;8.842;2023-05-03T06:23:14;100063.88;;;11.79;79.23
52927;BME280;40783;49.710;8.842;2023-05-03T06:25:40;100059.66;;;11.66;79.38
52927;BME280;40783;49.710;8.842;2023-05-03T06:28:07;100050.69;;;11.38;79.77
52927;BME280;40783;49.710;8.842;2023-05-03T06:30:35;100058.94;;;11.84;74.23
52927;BME280;40783;49.710;8.842;2023-05-03T06:33:00;100055.34;;;12.23;71.68
52927;BME280;40783;49.710;8.842;2023-05-03T06:35:26;100055.41;;;11.73;72.73
52927;BME280;40783;49.710;8.842;2023-05-03T06:37:51;100059.63;;;11.86;73.24
52927;BME280;40783;49.710;8.842;2023-05-03T06:40:16;100059.63;;;11.86;72.63
52927;BME280;40783;49.710;8.842;2023-05-03T06:42:42;100054.69;;;12.11;73.27
52927;BME280;40783;49.710;8.842;2023-05-03T06:45:07;100058.06;;;12.13;72.92
52927;BME280;40783;49.710;8.842;2023-05-03T06:47:33;100047.75;;;12.18;70.64
52927;BME280;40783;49.710;8.842;2023-05-03T06:49:58;100049.72;;;12.72;72.10
52927;BME280;40783;49.710;8.842;2023-05-03T06:52:25;100049.03;;;11.94;70.30
52927;BME280;40783;49.710;8.842;2023-05-03T06:54:51;100038.75;;;11.99;70.81
52927;BME280;40783;49.710;8.842;2023-05-03T06:57:17;100048.03;;;12.05;70.16
52927;BME280;40783;49.710;8.842;2023-05-03T06:59:42;100044.97;;;12.00;70.80
52927;BME280;40783;49.710;8.842;2023-05-03T07:02:08;100047.81;;;12.26;69.58
52927;BME280;40783;49.710;8.842;2023-05-03T07:04:33;100057.34;;;12.11;70.53
52927;BME280;40783;49.710;8.842;2023-05-03T07:06:58;100052.28;;;11.88;70.25
52927;BME280;40783;49.710;8.842;2023-05-03T07:09:24;100049.97;;;12.23;70.59
52927;BME280;40783;49.710;8.842;2023-05-03T07:11:52;100046.94;;;11.88;70.59
52927;BME280;40783;49.710;8.842;2023-05-03T07:14:17;100052.09;;;12.19;70.01
52927;BME280;40783;49.710;8.842;2023-05-03T07:16:43;100048.94;;;12.34;69.32
52927;BME280;40783;49.710;8.842;2023-05-03T07:19:08;100040.22;;;12.59;70.54
52927;BME280;40783;49.710;8.842;2023-05-03T07:21:36;100029.94;;;12.73;68.34
52927;BME280;40783;49.710;8.842;2023-05-03T07:24:01;100027.94;;;12.75;66.60
52927;BME280;40783;49.710;8.842;2023-05-03T07:26:27;100042.38;;;12.74;67.83
52927;BME280;40783;49.710;8.842;2023-05-03T07:28:52;100043.28;;;12.65;67.43
52927;BME280;40783;49.710;8.842;2023-05-03T07:31:21;100044.03;;;12.19;68.27
52927;BME280;40783;49.710;8.842;2023-05-03T07:33:49;100029.09;;;12.54;68.88
52927;BME280;40783;49.710;8.842;2023-05-03T07:36:15;100024.66;;;12.81;68.58
52927;BME280;40783;49.710;8.842;2023-05-03T07:38:45;100019.09;;;13.29;66.62
52927;BME280;40783;49.710;8.842;2023-05-03T07:41:10;100029.09;;;13.18;67.93
52927;BME280;40783;49.710;8.842;2023-05-03T07:43:35;100022.53;;;13.57;68.10
52927;BME280;40783;49.710;8.842;2023-05-03T07:46:01;100024.75;;;13.26;68.12
52927;BME280;40783;49.710;8.842;2023-05-03T07:48:26;100016.03;;;13.60;65.79
52927;BME280;40783;49.710;8.842;2023-05-03T07:50:51;100022.03;;;13.17;67.25
52927;BME280;40783;49.710;8.842;2023-05-03T07:53:19;100016.63;;;13.54;66.21
52927;BME280;40783;49.710;8.842;2023-05-03T07:55:45;100012.47;;;13.59;66.65
52927;BME280;40783;49.710;8.842;2023-05-03T07:58:12;100020.97;;;13.99;64.82
52927;BME280;40783;49.710;8.842;2023-05-03T08:00:40;100018.78;;;13.32;67.16
52927;BME280;40783;49.710;8.842;2023-05-03T08:03:06;100026.34;;;11.79;69.24
52927;BME280;40783;49.710;8.842;2023-05-03T08:05:34;100023.22;;;11.93;71.98
52927;BME280;40783;49.710;8.842;2023-05-03T08:08:00;100024.28;;;12.20;73.03
52927;BME280;40783;49.710;8.842;2023-05-03T08:10:30;100020.59;;;12.21;73.41
52927;BME280;40783;49.710;8.842;2023-05-03T08:13:02;100033.63;;;12.16;74.13
52927;BME280;40783;49.710;8.842;2023-05-03T08:15:28;100017.03;;;12.02;73.42
52927;BME280;40783;49.710;8.842;2023-05-03T08:17:58;100020.31;;;12.24;74.31
52927;BME280;40783;49.710;8.842;2023-05-03T08:20:24;100017.91;;;12.21;72.35
52927;BME280;40783;49.710;8.842;2023-05-03T08:22:51;100025.72;;;12.14;72.98
52927;BME280;40783;49.710;8.842;2023-05-03T08:25:18;100022.50;;;12.39;73.19
52927;BME280;40783;49.710;8.842;2023-05-03T08:27:47;100018.03;;;12.29;71.64
52927;BME280;40783;49.710;8.842;2023-05-03T08:30:14;100014.34;;;12.40;72.58
52927;BME280;40783;49.710;8.842;2023-05-03T08:32:40;100015.34;;;12.29;72.62
52927;BME280;40783;49.710;8.842;2023-05-03T08:35:08;100017.94;;;12.49;73.74
52927;BME280;40783;49.710;8.842;2023-05-03T08:37:41;100008.00;;;12.59;71.78
52927;BME280;40783;49.710;8.842;2023-05-03T08:40:08;100023.38;;;12.39;71.63
52927;BME280;40783;49.710;8.842;2023-05-03T08:42:42;100006.63;;;12.55;71.76
52927;BME280;40783;49.710;8.842;2023-05-03T08:45:11;100004.63;;;12.57;72.75
52927;BME280;40783;49.710;8.842;2023-05-03T08:47:39;100013.69;;;12.56;71.22
52927;BME280;40783;49.710;8.842;2023-05-03T08:50:07;100011.09;;;12.65;71.78
52927;BME280;40783;49.710;8.842;2023-05-03T08:52:33;100018.63;;;12.23;71.82
52927;BME280;40783;49.710;8.842;2023-05-03T08:54:59;100019.31;;;12.25;72.12
52927;BME280;40783;49.710;8.842;2023-05-03T08:57:26;100015.25;;;12.21;73.16
52927;BME280;40783;49.710;8.842;2023-05-03T08:59:52;100012.13;;;12.26;72.35
52927;BME280;40783;49.710;8.842;2023-05-03T09:02:21;100005.31;;;12.31;73.50
52927;BME280;40783;49.710;8.842;2023-05-03T09:04:48;100012.59;;;12.49;74.11
52927;BME280;40783;49.710;8.842;2023-05-03T09:07:16;100005.75;;;12.55;72.93
52927;BME280;40783;49.710;8.842;2023-05-03T09:09:42;100005.94;;;12.71;72.47
52927;BME280;40783;49.710;8.842;2023-05-03T09:12:07;100011.41;;;12.61;71.90
52927;BME280;40783;49.710;8.842;2023-05-03T09:14:43;100004.03;;;12.64;71.51
52927;BME280;40783;49.710;8.842;2023-05-03T09:17:17;100006.78;;;12.72;73.84
52927;BME280;40783;49.710;8.842;2023-05-03T09:19:53;100009.63;;;12.70;73.04
52927;BME280;40783;49.710;8.842;2023-05-03T09:22:19;100009.09;;;12.67;72.87
52927;BME280;40783;49.710;8.842;2023-05-03T09:24:58;100017.47;;;12.82;73.75
52927;BME280;40783;49.710;8.842;2023-05-03T09:27:25;100013.13;;;12.99;72.30
52927;BME280;40783;49.710;8.842;2023-05-03T09:29:51;100013.88;;;13.09;71.42
52927;BME280;40783;49.710;8.842;2023-05-03T09:32:17;100013.19;;;13.25;72.49
52927;BME280;40783;49.710;8.842;2023-05-03T09:34:43;100001.63;;;13.25;73.44
52927;BME280;40783;49.710;8.842;2023-05-03T09:37:09;100011.59;;;13.14;71.89
52927;BME280;40783;49.710;8.842;2023-05-03T09:39:35;100000.84;;;13.14;70.88
52927;BME280;40783;49.710;8.842;2023-05-03T09:42:17;100008.97;;;13.23;71.27
52927;BME280;40783;49.710;8.842;2023-05-03T09:44:47;100005.50;;;13.30;71.35
52927;BME280;40783;49.710;8.842;2023-05-03T09:47:16;99992.22;;;13.29;70.70
52927;BME280;40783;49.710;8.842;2023-05-03T09:49:43;99998.75;;;13.26;68.98
52927;BME280;40783;49.710;8.842;2023-05-03T09:52:13;99989.28;;;13.40;70.80
52927;BME280;40783;49.710;8.842;2023-05-03T09:54:38;99987.41;;;13.32;69.72
52927;BME280;40783;49.710;8.842;2023-05-03T09:57:06;99987.41;;;13.32;70.89
52927;BME280;40783;49.710;8.842;2023-05-03T09:59:33;99987.88;;;13.46;70.66
52927;BME280;40783;49.710;8.842;2023-05-03T10:02:05;99976.03;;;13.57;69.57
52927;BME280;40783;49.710;8.842;2023-05-03T10:05:02;99986.28;;;13.88;69.72
52927;BME280;40783;49.710;8.842;2023-05-03T10:07:33;99978.69;;;13.83;67.95
52927;BME280;40783;49.710;8.842;2023-05-03T10:09:58;99974.84;;;13.86;70.79
52927;BME280;40783;49.710;8.842;2023-05-03T10:12:24;99979.13;;;13.97;69.61
52927;BME280;40783;49.710;8.842;2023-05-03T10:14:52;99969.19;;;13.97;68.94
52927;BME280;40783;49.710;8.842;2023-05-03T10:17:25;99974.97;;;14.10;69.56
52927;BME280;40783;49.710;8.842;2023-05-03T10:20:00;99976.94;;;14.00;69.83
52927;BME280;40783;49.710;8.842;2023-05-03T10:22:29;99968.50;;;13.95;68.27
52927;BME280;40783;49.710;8.842;2023-05-03T10:32:52;99954.00;;;13.88;68.46
52927;BME280;40783;49.710;8.842;2023-05-03T10:35:25;99962.13;;;13.96;66.08
52927;BME280;40783;49.710;8.842;2023-05-03T10:37:50;99942.94;;;13.91;67.05
52927;BME280;40783;49.710;8.842;2023-05-03T10:40:20;99953.78;;;14.07;69.11
52927;BME280;40783;49.710;8.842;2023-05-03T10:42:50;99945.22;;;14.12;66.57
52927;BME280;40783;49.710;8.842;2023-05-03T10:45:22;99937.38;;;14.19;65.73
52927;BME280;40783;49.710;8.842;2023-05-03T10:50:34;99935.38;;;14.37;64.86
52927;BME280;40783;49.710;8.842;2023-05-03T10:53:02;99937.44;;;14.52;67.44
52927;BME280;40783;49.710;8.842;2023-05-03T10:55:27;99940.50;;;14.65;67.09
52927;BME280;40783;49.710;8.842;2023-05-03T10:57:56;99932.81;;;14.71;64.20
52927;BME280;40783;49.710;8.842;2023-05-03T11:05:50;99933.25;;;14.66;64.06
52927;BME280;40783;49.710;8.842;2023-05-03T11:08:20;99935.94;;;14.66;61.85
52927;BME280;40783;49.710;8.842;2023-05-03T11:10:49;99924.41;;;14.74;61.14
52927;BME280;40783;49.710;8.842;2023-05-03T11:13:21;99917.28;;;14.64;60.67
52927;BME280;40783;49.710;8.842;2023-05-03T11:15:46;99914.97;;;14.69;61.89
52927;BME280;40783;49.710;8.842;2023-05-03T11:18:14;99915.66;;;14.80;61.49
52927;BME280;40783;49.710;8.842;2023-05-03T11:20:45;99923.22;;;14.84;64.92
52927;BME280;40783;49.710;8.842;2023-05-03T11:23:11;99929.81;;;14.82;63.58
52927;BME280;40783;49.710;8.842;2023-05-03T11:25:36;99935.19;;;14.82;60.33
52927;BME280;40783;49.710;8.842;2023-05-03T11:28:02;99925.91;;;14.76;61.66
52927;BME280;40783;49.710;8.842;2023-05-03T11:30:29;99919.03;;;14.82;60.58
52927;BME280;40783;49.710;8.842;2023-05-03T11:32:58;99924.44;;;14.82;60.11
52927;BME280;40783;49.710;8.842;2023-05-03T11:35:28;99923.75;;;14.80;59.67
52927;BME280;40783;49.710;8.842;2023-05-03T11:37:56;99916.00;;;14.77;61.03
52927;BME280;40783;49.710;8.842;2023-05-03T11:40:24;99917.34;;;14.97;62.57
52927;BME280;40783;49.710;8.842;2023-05-03T11:45:20;99903.19;;;15.12;60.82
52927;BME280;40783;49.710;8.842;2023-05-03T11:47:46;99905.22;;;15.18;59.66
52927;BME280;40783;49.710;8.842;2023-05-03T11:50:15;99911.09;;;15.13;60.63
52927;BME280;40783;49.710;8.842;2023-05-03T11:52:40;99909.59;;;15.03;60.51
52927;BME280;40783;49.710;8.842;2023-05-03T11:55:07;99907.09;;;15.01;60.16
52927;BME280;40783;49.710;8.842;2023-05-03T11:57:35;99892.75;;;15.09;60.90
52927;BME280;40783;49.710;8.842;2023-05-03T12:00:11;99891.22;;;15.14;62.35
52927;BME280;40783;49.710;8.842;2023-05-03T12:02:46;99894.59;;;15.33;60.79
52927;BME280;40783;49.710;8.842;2023-05-03T12:05:12;99888.03;;;15.36;58.72
52927;BME280;40783;49.710;8.842;2023-05-03T12:07:40;99892.75;;;15.17;59.29
52927;BME280;40783;49.710;8.842;2023-05-03T12:10:17;99888.72;;;15.13;60.22
52927;BME280;40783;49.710;8.842;2023-05-03T12:12:56;99892.06;;;15.32;59.76
52927;BME280;40783;49.710;8.842;2023-05-03T12:15:32;99890.00;;;15.50;61.19
52927;BME280;40783;49.710;8.842;2023-05-03T12:17:59;99896.94;;;15.45;59.14
52927;BME280;40783;49.710;8.842;2023-05-03T12:20:26;99899.44;;;15.38;59.43
52927;BME280;40783;49.710;8.842;2023-05-03T12:22:56;99896.75;;;15.38;60.08
52927;BME280;40783;49.710;8.842;2023-05-03T12:25:22;99890.41;;;15.31;57.86
52927;BME280;40783;49.710;8.842;2023-05-03T12:27:51;99887.84;;;15.37;58.97
52927;BME280;40783;49.710;8.842;2023-05-03T12:30:16;99882.25;;;15.47;57.95
52927;BME280;40783;49.710;8.842;2023-05-03T12:32:47;99879.75;;;15.37;56.44
52927;BME280;40783;49.710;8.842;2023-05-03T12:35:18;99875.25;;;15.21;57.48
52927;BME280;40783;49.710;8.842;2023-05-03T12:37:47;99867.84;;;15.23;57.79
52927;BME280;40783;49.710;8.842;2023-05-03T12:40:14;99862.38;;;15.40;58.66
52927;BME280;40783;49.710;8.842;2023-05-03T12:42:42;99853.28;;;15.41;58.47
52927;BME280;40783;49.710;8.842;2023-05-03T12:45:09;99859.00;;;15.54;56.81
52927;BME280;40783;49.710;8.842;2023-05-03T12:47:35;99851.56;;;15.56;56.88
52927;BME280;40783;49.710;8.842;2023-05-03T12:50:05;99858.25;;;15.77;55.56
52927;BME280;40783;49.710;8.842;2023-05-03T12:52:31;99852.84;;;15.77;55.10
52927;BME280;40783;49.710;8.842;2023-05-03T12:55:01;99846.81;;;15.67;55.34
52927;BME280;40783;49.710;8.842;2023-05-03T12:57:26;99855.00;;;15.82;54.77
52927;BME280;40783;49.710;8.842;2023-05-03T12:59:51;99847.66;;;15.67;54.72
52927;BME280;40783;49.710;8.842;2023-05-03T13:02:20;99844.59;;;15.70;53.53
52927;BME280;40783;49.710;8.842;2023-05-03T13:04:46;99844.88;;;15.84;54.13
52927;BME280;40783;49.710;8.842;2023-05-03T13:07:14;99835.19;;;16.06;53.69
52927;BME280;40783;49.710;8.842;2023-05-03T13:09:44;99827.25;;;16.13;53.11
52927;BME280;40783;49.710;8.842;2023-05-03T13:12:13;99834.22;;;15.99;52.32
52927;BME280;40783;49.710;8.842;2023-05-03T13:14:38;99832.47;;;16.14;52.91
52927;BME280;40783;49.710;8.842;2023-05-03T13:17:06;99819.63;;;16.16;51.21
52927;BME280;40783;49.710;8.842;2023-05-03T13:19:34;99820.59;;;16.24;51.10
52927;BME280;40783;49.710;8.842;2023-05-03T13:22:00;99819.28;;;16.20;50.58